Time;durP1;ratioP1;P1;durP2;ratioP2;P2;SDS_P1;SDS_P2;PMS_P1;PMS_P2;Temp;Humidity;BMP_temperature;BMP_pressure;BME280_temperature;BME280_humidity;BME280_pressure;Samples;Min_cycle;Max_cycle;Signal;HPM_P1;HPM_P2
2022/05/15 00:01:44;;;;;;;0.10;0.10;;;;;;;;;;4927231;29;20050;-94
2022/05/15 00:04:10;;;;;;;0.10;0.10;;;;;;;;;;4925586;29;20050;-94
2022/05/15 00:06:36;;;;;;;0.10;0.10;;;;;;;;;;4925093;29;20043;-94
2022/05/15 00:09:03;;;;;;;0.10;0.10;;;;;;;;;;4924405;29;20040;-93
2022/05/15 00:11:29;;;;;;;0.10;0.10;;;;;;;;;;4924927;29;20066;-94
2022/05/15 00:13:57;;;;;;;0.10;0.10;;;;;;;;;;4924850;29;20046;-93
2022/05/15 00:16:23;;;;;;;0.10;0.10;;;;;;;;;;4925129;29;20045;-94
2022/05/15 00:18:50;;;;;;;0.10;0.10;;;;;;;;;;4924914;29;20036;-94
2022/05/15 00:21:16;;;;;;;0.00;0.00;;;;;;;;;;4925024;29;20055;-94
2022/05/15 00:23:43;;;;;;;0.10;0.10;;;;;;;;;;4924915;29;20051;-93
2022/05/15 00:26:09;;;;;;;0.10;0.10;;;;;;;;;;4924733;29;20047;-94
2022/05/15 00:28:35;;;;;;;0.10;0.10;;;;;;;;;;4924954;29;20051;-93
2022/05/15 00:31:03;;;;;;;0.10;0.10;;;;;;;;;;4925240;29;20058;-94
2022/05/15 00:33:29;;;;;;;0.10;0.10;;;;;;;;;;4924113;29;20043;-93
2022/05/15 00:35:55;;;;;;;0.10;0.10;;;;;;;;;;4924298;29;20130;-93
2022/05/15 00:38:21;;;;;;;0.10;0.10;;;;;;;;;;4924883;29;20511;-93
2022/05/15 00:40:47;;;;;;;0.10;0.10;;;;;;;;;;4924329;29;20058;-93
2022/05/15 00:43:32;;;;;;;0.10;0.10;;;;;;;;;;4924363;29;20049;-93
2022/05/15 00:45:58;;;;;;;0.10;0.10;;;;;;;;;;4940567;29;20074;-93
2022/05/15 00:48:24;;;;;;;0.13;0.13;;;;;;;;;;4940810;29;20115;-94
2022/05/15 00:50:50;;;;;;;0.10;0.10;;;;;;;;;;4924359;29;20039;-91
2022/05/15 00:53:17;;;;;;;0.00;0.00;;;;;;;;;;4923497;29;20050;-92
2022/05/15 00:55:44;;;;;;;0.10;0.10;;;;;;;;;;4924036;29;20086;-91
2022/05/15 00:58:15;;;;;;;0.10;0.10;;;;;;;;;;4924102;29;20035;-91
2022/05/15 01:00:41;;;;;;;0.10;0.10;;;;;;;;;;4924199;29;20476;-92
2022/05/15 01:03:08;;;;;;;0.10;0.10;;;;;;;;;;4924190;29;20178;-92
2022/05/15 01:05:34;;;;;;;0.10;0.10;;;;;;;;;;4924083;29;20050;-92
2022/05/15 01:08:00;;;;;;;0.10;0.10;;;;;;;;;;4923289;29;20129;-91
2022/05/15 01:10:26;;;;;;;0.10;0.10;;;;;;;;;;4924088;29;20495;-93
2022/05/15 01:12:58;;;;;;;0.10;0.10;;;;;;;;;;4924320;29;20039;-93
2022/05/15 01:15:24;;;;;;;0.10;0.10;;;;;;;;;;4924077;29;20082;-93
2022/05/15 01:17:50;;;;;;;0.03;0.03;;;;;;;;;;4924519;29;20463;-93
2022/05/15 01:20:18;;;;;;;0.10;0.10;;;;;;;;;;4923940;29;20055;-93
2022/05/15 01:22:44;;;;;;;0.10;0.10;;;;;;;;;;4924032;29;20521;-91
2022/05/15 01:25:12;;;;;;;0.10;0.10;;;;;;;;;;4924060;29;20043;-92
2022/05/15 01:27:38;;;;;;;0.00;0.00;;;;;;;;;;4924101;29;20043;-93
2022/05/15 01:30:05;;;;;;;0.10;0.10;;;;;;;;;;4923392;29;20047;-93
2022/05/15 01:32:32;;;;;;;0.10;0.10;;;;;;;;;;4923681;29;20399;-93
2022/05/15 01:34:58;;;;;;;0.10;0.10;;;;;;;;;;4939330;29;20039;-93
2022/05/15 01:37:24;;;;;;;0.10;0.10;;;;;;;;;;4923297;29;20042;-92
2022/05/15 01:39:50;;;;;;;0.10;0.10;;;;;;;;;;4923521;29;20505;-92
2022/05/15 01:42:16;;;;;;;0.10;0.10;;;;;;;;;;4923947;29;20114;-92
2022/05/15 01:44:42;;;;;;;0.10;0.10;;;;;;;;;;4923443;28;20047;-92
2022/05/15 01:47:08;;;;;;;0.10;0.10;;;;;;;;;;4923525;29;20046;-92
2022/05/15 01:49:34;;;;;;;0.10;0.10;;;;;;;;;;4923495;29;20407;-92
2022/05/15 01:52:00;;;;;;;0.10;0.10;;;;;;;;;;4923101;29;20043;-91
2022/05/15 01:54:26;;;;;;;0.22;0.22;;;;;;;;;;4923335;29;20043;-93
2022/05/15 01:56:52;;;;;;;0.10;0.10;;;;;;;;;;4923142;29;20487;-93
2022/05/15 01:59:18;;;;;;;0.10;0.10;;;;;;;;;;4923004;29;20052;-93
2022/05/15 02:01:44;;;;;;;0.10;0.10;;;;;;;;;;4923185;29;20047;-93
2022/05/15 02:04:10;;;;;;;0.10;0.10;;;;;;;;;;4923238;29;20139;-93
2022/05/15 02:06:36;;;;;;;0.20;0.20;;;;;;;;;;4923205;29;20127;-93
2022/05/15 02:09:02;;;;;;;0.10;0.10;;;;;;;;;;4923464;29;20051;-94
2022/05/15 02:11:29;;;;;;;0.10;0.10;;;;;;;;;;4923384;29;20039;-93
2022/05/15 02:13:55;;;;;;;0.10;0.10;;;;;;;;;;4923092;29;20082;-93
2022/05/15 02:16:21;;;;;;;0.10;0.10;;;;;;;;;;4922976;29;20068;-93
2022/05/15 02:18:47;;;;;;;0.10;0.10;;;;;;;;;;4922546;29;20079;-93
2022/05/15 02:21:14;;;;;;;0.10;0.10;;;;;;;;;;4923117;29;20059;-92
2022/05/15 02:23:40;;;;;;;0.10;0.10;;;;;;;;;;4922948;29;20211;-93
2022/05/15 02:26:06;;;;;;;0.10;0.10;;;;;;;;;;4923068;29;20072;-92
2022/05/15 02:28:32;;;;;;;0.10;0.10;;;;;;;;;;4922946;29;20050;-93
2022/05/15 02:30:58;;;;;;;0.10;0.10;;;;;;;;;;4922801;29;20043;-93
2022/05/15 02:33:24;;;;;;;0.05;0.05;;;;;;;;;;4922842;29;20059;-94
2022/05/15 02:35:50;;;;;;;0.10;0.10;;;;;;;;;;4923151;29;20043;-93
2022/05/15 02:38:16;;;;;;;0.10;0.10;;;;;;;;;;4922804;29;20043;-92
2022/05/15 02:40:42;;;;;;;0.10;0.10;;;;;;;;;;4922573;29;20492;-92
2022/05/15 02:43:08;;;;;;;0.10;0.10;;;;;;;;;;4922621;29;20054;-92
2022/05/15 02:45:34;;;;;;;0.10;0.10;;;;;;;;;;4922555;29;20391;-91
2022/05/15 02:48:00;;;;;;;0.10;0.10;;;;;;;;;;4922680;29;20043;-91
2022/05/15 02:53:11;;;;;;;0.10;0.10;;;;;;;;;;4924817;29;20082;-91
2022/05/15 02:55:37;;;;;;;0.08;0.08;;;;;;;;;;4922519;29;20074;-91
2022/05/15 02:58:04;;;;;;;0.10;0.10;;;;;;;;;;4924547;29;20043;-92
2022/05/15 03:00:31;;;;;;;0.10;0.10;;;;;;;;;;4926761;29;20047;-93
2022/05/15 03:02:57;;;;;;;0.10;0.10;;;;;;;;;;4925579;29;20633;-92
2022/05/15 03:05:23;;;;;;;0.10;0.10;;;;;;;;;;4926687;29;20142;-92
2022/05/15 03:07:49;;;;;;;0.10;0.10;;;;;;;;;;4926343;29;20043;-92
2022/05/15 03:10:16;;;;;;;0.10;0.10;;;;;;;;;;4926157;29;20054;-92
2022/05/15 03:12:42;;;;;;;0.10;0.10;;;;;;;;;;4926366;29;20047;-93
2022/05/15 03:15:11;;;;;;;0.10;0.10;;;;;;;;;;4926151;29;20406;-92
2022/05/15 03:17:37;;;;;;;0.10;0.10;;;;;;;;;;4926362;29;20078;-91
2022/05/15 03:20:04;;;;;;;0.10;0.10;;;;;;;;;;4925782;29;20110;-93
2022/05/15 03:22:30;;;;;;;0.10;0.10;;;;;;;;;;4926034;29;20451;-92
2022/05/15 03:24:56;;;;;;;0.10;0.10;;;;;;;;;;4926129;29;20063;-91
2022/05/15 03:27:21;;;;;;;0.10;0.10;;;;;;;;;;4925955;29;20039;-91
2022/05/15 03:29:47;;;;;;;0.10;0.10;;;;;;;;;;4925768;29;20049;-91
2022/05/15 03:32:13;;;;;;;0.10;0.10;;;;;;;;;;4925861;29;20043;-92
2022/05/15 03:34:39;;;;;;;0.10;0.10;;;;;;;;;;4925735;29;20051;-93
2022/05/15 03:37:05;;;;;;;0.10;0.10;;;;;;;;;;4925834;29;20071;-93
2022/05/15 03:39:31;;;;;;;0.10;0.10;;;;;;;;;;4926258;29;20043;-93
2022/05/15 03:41:57;;;;;;;0.10;0.10;;;;;;;;;;4924809;29;20035;-92
2022/05/15 03:44:23;;;;;;;0.10;0.10;;;;;;;;;;4925314;29;20043;-93
2022/05/15 03:46:49;;;;;;;0.10;0.10;;;;;;;;;;4925903;29;20055;-92
2022/05/15 03:49:15;;;;;;;0.10;0.10;;;;;;;;;;4925849;29;20043;-92
2022/05/15 03:51:42;;;;;;;0.10;0.10;;;;;;;;;;4925447;29;20043;-91
2022/05/15 03:54:09;;;;;;;0.03;0.03;;;;;;;;;;4925280;29;20470;-92
2022/05/15 03:56:50;;;;;;;0.10;0.10;;;;;;;;;;4925598;29;20047;-91
2022/05/15 03:59:16;;;;;;;0.10;0.10;;;;;;;;;;4927245;29;20155;-92
2022/05/15 04:01:42;;;;;;;1.33;1.33;;;;;;;;;;4925315;29;20384;-91
2022/05/15 04:04:08;;;;;;;0.10;0.10;;;;;;;;;;4925103;29;20146;-91
2022/05/15 04:06:34;;;;;;;0.03;0.03;;;;;;;;;;4925386;29;20039;-92
2022/05/15 04:09:00;;;;;;;0.10;0.10;;;;;;;;;;4925047;29;20047;-92
2022/05/15 04:11:26;;;;;;;0.10;0.10;;;;;;;;;;4924999;29;20109;-92
2022/05/15 04:13:52;;;;;;;0.10;0.10;;;;;;;;;;4925301;29;20043;-91
2022/05/15 04:16:18;;;;;;;0.10;0.10;;;;;;;;;;4925355;29;20050;-92
2022/05/15 04:18:44;;;;;;;0.10;0.10;;;;;;;;;;4925121;29;20035;-91
2022/05/15 04:21:10;;;;;;;0.10;0.10;;;;;;;;;;4925222;29;20062;-93
2022/05/15 04:23:36;;;;;;;0.10;0.10;;;;;;;;;;4925046;29;20043;-93
2022/05/15 04:26:03;;;;;;;0.10;0.10;;;;;;;;;;4924348;29;20046;-93
2022/05/15 04:28:29;;;;;;;0.10;0.10;;;;;;;;;;4925151;29;20105;-93
2022/05/15 04:30:55;;;;;;;0.00;0.00;;;;;;;;;;4925032;29;20043;-93
2022/05/15 04:33:21;;;;;;;0.68;0.68;;;;;;;;;;4924745;29;20040;-93
2022/05/15 04:35:47;;;;;;;0.10;0.10;;;;;;;;;;4925033;29;20154;-94
2022/05/15 04:38:13;;;;;;;0.10;0.10;;;;;;;;;;4925391;29;20098;-94
2022/05/15 04:40:39;;;;;;;0.10;0.10;;;;;;;;;;4934247;29;20051;-93
2022/05/15 04:43:05;;;;;;;0.10;0.10;;;;;;;;;;4929056;29;20440;-94
2022/05/15 04:45:31;;;;;;;0.00;0.00;;;;;;;;;;4924759;29;20174;-93
2022/05/15 04:47:57;;;;;;;0.10;0.10;;;;;;;;;;4927628;29;20506;-93
2022/05/15 04:50:23;;;;;;;0.10;0.10;;;;;;;;;;4939505;28;20027;-92
2022/05/15 04:52:49;;;;;;;0.10;0.10;;;;;;;;;;4937725;28;20058;-92
2022/05/15 04:55:15;;;;;;;0.10;0.10;;;;;;;;;;4938983;28;20479;-93
2022/05/15 04:57:41;;;;;;;0.10;0.10;;;;;;;;;;4928940;29;20134;-92
2022/05/15 05:00:09;;;;;;;0.10;0.10;;;;;;;;;;4924465;29;20047;-93
2022/05/15 05:02:35;;;;;;;0.10;0.10;;;;;;;;;;4924343;29;20039;-91
2022/05/15 05:05:01;;;;;;;0.10;0.10;;;;;;;;;;4924299;29;20036;-93
2022/05/15 05:07:27;;;;;;;0.68;0.68;;;;;;;;;;4923749;29;20035;-93
2022/05/15 05:09:53;;;;;;;0.10;0.10;;;;;;;;;;4924027;29;20082;-93
2022/05/15 05:12:20;;;;;;;0.10;0.10;;;;;;;;;;4923572;29;20043;-92
2022/05/15 05:14:46;;;;;;;0.10;0.10;;;;;;;;;;4924002;29;20518;-92
2022/05/15 05:17:11;;;;;;;0.45;0.35;;;;;;;;;;4923859;29;20074;-91
2022/05/15 05:19:37;;;;;;;0.10;0.10;;;;;;;;;;4923732;28;20064;-90
2022/05/15 05:22:04;;;;;;;0.08;0.08;;;;;;;;;;4923375;29;20062;-92
2022/05/15 05:24:30;;;;;;;0.20;0.20;;;;;;;;;;4924103;29;20051;-91
2022/05/15 05:26:56;;;;;;;0.10;0.10;;;;;;;;;;4923695;29;20106;-92
2022/05/15 05:29:22;;;;;;;0.10;0.10;;;;;;;;;;4923596;29;20394;-92
2022/05/15 05:31:48;;;;;;;0.10;0.10;;;;;;;;;;4923664;29;20564;-92
2022/05/15 05:34:14;;;;;;;0.10;0.10;;;;;;;;;;4923931;29;20039;-94
2022/05/15 05:36:40;;;;;;;0.10;0.10;;;;;;;;;;4923705;29;20141;-93
2022/05/15 05:39:06;;;;;;;0.28;0.28;;;;;;;;;;4923661;29;20027;-93
2022/05/15 05:41:33;;;;;;;0.10;0.10;;;;;;;;;;4923335;29;20098;-93
2022/05/15 05:44:00;;;;;;;0.10;0.10;;;;;;;;;;4923642;29;20043;-94
2022/05/15 05:46:27;;;;;;;0.10;0.10;;;;;;;;;;4922576;29;20059;-93
2022/05/15 05:48:53;;;;;;;0.10;0.10;;;;;;;;;;4923316;29;20043;-93
2022/05/15 05:51:19;;;;;;;0.00;0.00;;;;;;;;;;4923940;29;20110;-93
2022/05/15 05:53:45;;;;;;;0.10;0.10;;;;;;;;;;4922548;29;20039;-93
2022/05/15 05:56:11;;;;;;;0.10;0.10;;;;;;;;;;4922606;29;20443;-93
2022/05/15 05:58:37;;;;;;;0.20;0.20;;;;;;;;;;4919249;29;20467;-94
2022/05/15 06:01:03;;;;;;;0.10;0.10;;;;;;;;;;4901687;29;20069;-93
2022/05/15 06:06:15;;;;;;;0.10;0.10;;;;;;;;;;4924130;29;20126;-91
2022/05/15 06:08:42;;;;;;;0.10;0.10;;;;;;;;;;4938593;29;20043;-91
2022/05/15 06:11:08;;;;;;;0.15;0.15;;;;;;;;;;4922469;29;20078;-92
2022/05/15 06:13:34;;;;;;;0.20;0.20;;;;;;;;;;4922001;29;20053;-93
2022/05/15 06:16:00;;;;;;;0.10;0.10;;;;;;;;;;4922714;29;20039;-92
2022/05/15 06:18:26;;;;;;;0.10;0.10;;;;;;;;;;4922069;29;20039;-92
2022/05/15 06:20:52;;;;;;;0.13;0.13;;;;;;;;;;4921245;29;20110;-90
2022/05/15 06:23:19;;;;;;;0.10;0.10;;;;;;;;;;4921282;29;20043;-90
2022/05/15 06:25:45;;;;;;;0.30;0.30;;;;;;;;;;4921059;29;20047;-90
2022/05/15 06:28:11;;;;;;;0.10;0.10;;;;;;;;;;4920710;29;20494;-91
2022/05/15 06:30:37;;;;;;;0.10;0.10;;;;;;;;;;4920764;29;20186;-91
2022/05/15 06:33:06;;;;;;;0.80;0.77;;;;;;;;;;4936054;29;20039;-91
2022/05/15 06:35:32;;;;;;;0.20;0.20;;;;;;;;;;4921076;29;20337;-90
2022/05/15 06:38:02;;;;;;;0.10;0.10;;;;;;;;;;4921064;29;20043;-90
2022/05/15 06:40:28;;;;;;;0.20;0.20;;;;;;;;;;4920975;29;20039;-91
2022/05/15 06:42:54;;;;;;;0.30;0.30;;;;;;;;;;4921231;29;20043;-91
2022/05/15 06:45:20;;;;;;;0.25;0.25;;;;;;;;;;4921331;29;20049;-92
2022/05/15 06:47:46;;;;;;;0.10;0.10;;;;;;;;;;4920893;29;20043;-91
2022/05/15 06:50:12;;;;;;;0.32;0.20;;;;;;;;;;4920733;29;20126;-91
2022/05/15 06:52:38;;;;;;;0.10;0.10;;;;;;;;;;4920458;29;20392;-91
2022/05/15 06:55:05;;;;;;;0.63;0.20;;;;;;;;;;4920601;29;20047;-92
2022/05/15 06:57:33;;;;;;;0.10;0.10;;;;;;;;;;4921069;29;20125;-91
2022/05/15 06:59:59;;;;;;;0.10;0.10;;;;;;;;;;4917410;29;20044;-91
2022/05/15 07:02:25;;;;;;;0.10;0.10;;;;;;;;;;4901074;29;20102;-89
2022/05/15 07:04:54;;;;;;;0.17;0.17;;;;;;;;;;4901465;29;20052;-89
2022/05/15 07:07:20;;;;;;;0.20;0.20;;;;;;;;;;4902094;29;20040;-92
2022/05/15 07:09:47;;;;;;;0.20;0.20;;;;;;;;;;4901412;29;20408;-91
2022/05/15 07:12:13;;;;;;;1.35;0.30;;;;;;;;;;4901331;29;20039;-91
2022/05/15 07:14:39;;;;;;;0.10;0.10;;;;;;;;;;4901314;29;20051;-90
2022/05/15 07:17:05;;;;;;;0.20;0.20;;;;;;;;;;4901522;29;20051;-90
2022/05/15 07:19:31;;;;;;;0.10;0.10;;;;;;;;;;4901807;29;20400;-91
2022/05/15 07:21:57;;;;;;;0.10;0.10;;;;;;;;;;4856704;29;1347584;-91
2022/05/15 07:24:23;;;;;;;0.10;0.10;;;;;;;;;;4902296;29;20054;-91
2022/05/15 07:26:49;;;;;;;0.30;0.30;;;;;;;;;;4902390;29;20126;-91
2022/05/15 07:29:15;;;;;;;0.10;0.10;;;;;;;;;;4902717;29;20451;-90
2022/05/15 07:31:41;;;;;;;0.10;0.10;;;;;;;;;;4902332;29;20399;-91
2022/05/15 07:34:07;;;;;;;0.10;0.10;;;;;;;;;;4902316;29;20051;-91
2022/05/15 07:36:34;;;;;;;0.20;0.20;;;;;;;;;;4902610;29;20379;-90
2022/05/15 07:39:00;;;;;;;0.20;0.20;;;;;;;;;;4902518;29;20079;-91
2022/05/15 07:41:26;;;;;;;0.10;0.10;;;;;;;;;;4902619;29;20075;-91
2022/05/15 07:43:51;;;;;;;0.10;0.10;;;;;;;;;;4908994;29;20106;-91
2022/05/15 07:46:17;;;;;;;0.10;0.10;;;;;;;;;;4924154;29;20039;-90
2022/05/15 07:48:43;;;;;;;0.30;0.30;;;;;;;;;;4924670;29;20108;-90
2022/05/15 07:51:09;;;;;;;0.38;0.38;;;;;;;;;;4924367;29;20046;-90
2022/05/15 07:53:37;;;;;;;0.43;0.43;;;;;;;;;;4924185;29;20039;-91
2022/05/15 07:56:05;;;;;;;0.20;0.20;;;;;;;;;;4924336;29;20567;-90
2022/05/15 07:58:31;;;;;;;0.20;0.20;;;;;;;;;;4924974;29;20035;-92
2022/05/15 08:00:57;;;;;;;0.10;0.10;;;;;;;;;;4924685;29;20043;-93
2022/05/15 08:03:23;;;;;;;0.20;0.20;;;;;;;;;;4924933;29;20306;-92
2022/05/15 08:08:33;;;;;;;0.17;0.17;;;;;;;;;;4926913;29;20491;-92
2022/05/15 08:11:00;;;;;;;0.10;0.10;;;;;;;;;;4924593;29;20408;-92
2022/05/15 08:13:26;;;;;;;0.55;0.55;;;;;;;;;;4924405;29;20043;-92
2022/05/15 08:15:52;;;;;;;0.10;0.10;;;;;;;;;;4924292;29;20035;-91
2022/05/15 08:23:53;;;;;;;0.10;0.10;;;;;;;;;;4926112;29;20506;-91
2022/05/15 08:26:19;;;;;;;0.30;0.20;;;;;;;;;;4924013;29;20043;-91
2022/05/15 08:28:46;;;;;;;0.10;0.10;;;;;;;;;;4939571;29;20082;-91
2022/05/15 08:31:12;;;;;;;0.10;0.10;;;;;;;;;;4924008;29;20510;-91
2022/05/15 08:33:38;;;;;;;0.20;0.20;;;;;;;;;;4923823;29;20082;-90
2022/05/15 08:36:05;;;;;;;0.13;0.13;;;;;;;;;;4939379;29;20050;-91
2022/05/15 08:38:31;;;;;;;0.13;0.13;;;;;;;;;;4923686;29;20050;-87
2022/05/15 08:41:00;;;;;;;0.10;0.10;;;;;;;;;;4924403;29;20039;-92
2022/05/15 08:43:41;;;;;;;0.13;0.13;;;;;;;;;;4939626;29;20498;-91
2022/05/15 08:46:19;;;;;;;0.10;0.10;;;;;;;;;;4924199;29;20039;-92
2022/05/15 08:48:45;;;;;;;0.10;0.10;;;;;;;;;;4923742;29;20110;-91
2022/05/15 08:51:11;;;;;;;0.10;0.10;;;;;;;;;;4923733;29;20155;-90
2022/05/15 08:53:38;;;;;;;0.20;0.20;;;;;;;;;;4923371;29;20043;-89
2022/05/15 08:56:07;;;;;;;0.20;0.20;;;;;;;;;;4923246;29;20082;-89
2022/05/15 08:58:52;;;;;;;0.10;0.10;;;;;;;;;;4923675;29;20039;-88
2022/05/15 09:01:23;;;;;;;0.20;0.20;;;;;;;;;;4923069;29;20047;-88
2022/05/15 09:03:49;;;;;;;0.10;0.10;;;;;;;;;;4921949;29;20050;-88
2022/05/15 09:06:28;;;;;;;0.10;0.10;;;;;;;;;;4939370;29;20047;-91
2022/05/15 09:09:12;;;;;;;0.20;0.20;;;;;;;;;;4938799;29;20039;-88
2022/05/15 09:11:47;;;;;;;0.20;0.20;;;;;;;;;;4922814;28;20098;-90
2022/05/15 09:14:22;;;;;;;0.20;0.20;;;;;;;;;;4923315;29;20075;-90
2022/05/15 09:16:55;;;;;;;0.17;0.17;;;;;;;;;;4907255;29;20125;-90
2022/05/15 09:19:21;;;;;;;0.20;0.20;;;;;;;;;;4907413;29;20455;-91
2022/05/15 09:21:47;;;;;;;0.10;0.10;;;;;;;;;;4907161;28;20061;-93
2022/05/15 09:24:40;;;;;;;0.15;0.15;;;;;;;;;;4906416;29;20143;-87
2022/05/15 09:27:36;;;;;;;0.15;0.15;;;;;;;;;;4918489;29;20059;-87
2022/05/15 09:30:10;;;;;;;0.17;0.17;;;;;;;;;;4919527;29;20109;-90
2022/05/15 09:32:38;;;;;;;0.20;0.20;;;;;;;;;;4938204;29;20470;-88
2022/05/15 09:35:04;;;;;;;0.10;0.10;;;;;;;;;;4922663;29;20122;-90
2022/05/15 09:40:20;;;;;;;0.10;0.10;;;;;;;;;;4925290;29;20043;-90
2022/05/15 09:45:48;;;;;;;0.20;0.20;;;;;;;;;;4925831;29;20098;-91
2022/05/15 09:48:14;;;;;;;0.10;0.10;;;;;;;;;;4922876;29;20047;-90
2022/05/15 09:50:57;;;;;;;0.20;0.20;;;;;;;;;;4922681;29;20074;-90
2022/05/15 09:53:23;;;;;;;0.20;0.20;;;;;;;;;;4923007;29;20039;-91
2022/05/15 09:56:02;;;;;;;0.20;0.20;;;;;;;;;;4938790;29;20035;-90
2022/05/15 09:58:35;;;;;;;0.20;0.20;;;;;;;;;;4923163;29;20051;-92
2022/05/15 10:01:12;;;;;;;0.20;0.20;;;;;;;;;;4923499;29;20124;-90
2022/05/15 10:03:38;;;;;;;0.10;0.10;;;;;;;;;;4939826;29;20510;-88
2022/05/15 10:06:08;;;;;;;0.30;0.30;;;;;;;;;;4938734;28;20050;-91
2022/05/15 10:08:35;;;;;;;0.17;0.17;;;;;;;;;;4925004;29;20047;-88
2022/05/15 10:11:02;;;;;;;0.10;0.10;;;;;;;;;;4925386;29;20070;-89
2022/05/15 10:13:37;;;;;;;0.17;0.17;;;;;;;;;;4923691;29;20059;-92
2022/05/15 10:16:23;;;;;;;0.20;0.20;;;;;;;;;;4938121;29;20047;-89
2022/05/15 10:19:08;;;;;;;0.20;0.20;;;;;;;;;;4922394;29;20093;-91
2022/05/15 10:21:41;;;;;;;0.10;0.10;;;;;;;;;;4938522;28;20546;-92
2022/05/15 10:24:10;;;;;;;0.17;0.17;;;;;;;;;;4927428;29;20188;-91
2022/05/15 10:26:47;;;;;;;0.20;0.20;;;;;;;;;;4937193;29;20066;-93
2022/05/15 10:29:19;;;;;;;0.20;0.20;;;;;;;;;;4944971;29;20514;-93
2022/05/15 10:31:49;;;;;;;0.10;0.10;;;;;;;;;;4925024;28;20051;-92
2022/05/15 10:34:18;;;;;;;0.15;0.15;;;;;;;;;;4923481;29;20047;-91
2022/05/15 10:37:14;;;;;;;0.20;0.20;;;;;;;;;;4922562;29;20036;-92
2022/05/15 10:39:40;;;;;;;0.17;0.17;;;;;;;;;;4902556;29;20071;-90
2022/05/15 10:42:15;;;;;;;0.10;0.10;;;;;;;;;;4911727;29;20392;-91
2022/05/15 10:44:51;;;;;;;0.20;0.20;;;;;;;;;;4924787;29;20043;-90
2022/05/15 10:47:18;;;;;;;0.13;0.13;;;;;;;;;;4937134;29;20055;-91
2022/05/15 10:50:03;;;;;;;0.10;0.10;;;;;;;;;;4921764;29;20134;-89
2022/05/15 10:52:29;;;;;;;0.52;0.30;;;;;;;;;;4937352;29;20409;-91
2022/05/15 10:58:17;;;;;;;0.10;0.10;;;;;;;;;;4937985;29;20231;-91
2022/05/15 11:00:46;;;;;;;0.20;0.20;;;;;;;;;;4937496;29;20098;-92
2022/05/15 11:03:14;;;;;;;0.10;0.10;;;;;;;;;;4937877;29;20054;-91
2022/05/15 11:05:59;;;;;;;0.10;0.10;;;;;;;;;;4922579;29;20047;-91
2022/05/15 11:08:51;;;;;;;0.10;0.10;;;;;;;;;;4921773;29;20132;-91
2022/05/15 11:11:25;;;;;;;0.20;0.20;;;;;;;;;;4914993;29;20143;-93
2022/05/15 11:13:54;;;;;;;0.15;0.15;;;;;;;;;;4904687;29;20440;-94
2022/05/15 11:16:28;;;;;;;0.17;0.17;;;;;;;;;;4904178;29;20066;-94
2022/05/15 11:19:03;;;;;;;0.20;0.20;;;;;;;;;;4921168;29;20040;-92
2022/05/15 11:21:47;;;;;;;0.10;0.10;;;;;;;;;;4906736;29;20072;-94
2022/05/15 11:24:26;;;;;;;0.40;0.40;;;;;;;;;;4938665;29;20051;-93
2022/05/15 11:26:53;;;;;;;0.20;0.20;;;;;;;;;;4907218;29;20435;-92
2022/05/15 11:29:19;;;;;;;0.10;0.10;;;;;;;;;;4922591;29;20134;-92
2022/05/15 11:31:46;;;;;;;0.20;0.20;;;;;;;;;;4906687;29;20127;-92
2022/05/15 11:34:12;;;;;;;0.10;0.10;;;;;;;;;;4906611;29;20050;-92
2022/05/15 11:36:44;;;;;;;0.20;0.20;;;;;;;;;;4907098;29;20047;-93
2022/05/15 11:39:11;;;;;;;;;;;;;;;;;;4907726;29;20075;-92
2022/05/15 11:41:39;;;;;;;0.20;0.20;;;;;;;;;;4937506;29;19978;-91
2022/05/15 11:44:12;;;;;;;0.20;0.20;;;;;;;;;;4907123;29;20040;-91
2022/05/15 11:46:47;;;;;;;0.10;0.10;;;;;;;;;;4922245;29;20232;-91
2022/05/15 11:49:16;;;;;;;0.10;0.10;;;;;;;;;;4939049;29;20514;-92
2022/05/15 11:51:43;;;;;;;0.10;0.10;;;;;;;;;;4924381;29;20075;-91
2022/05/15 11:54:10;;;;;;;0.10;0.10;;;;;;;;;;4910033;29;20047;-92
2022/05/15 11:56:41;;;;;;;0.10;0.10;;;;;;;;;;4911310;29;20514;-91
2022/05/15 11:59:07;;;;;;;0.10;0.10;;;;;;;;;;4930769;29;20075;-90
2022/05/15 12:01:35;;;;;;;0.15;0.15;;;;;;;;;;4928114;29;20043;-89
2022/05/15 12:04:06;;;;;;;0.10;0.10;;;;;;;;;;4937314;29;20122;-89
2022/05/15 12:06:46;;;;;;;0.10;0.10;;;;;;;;;;4906416;29;20464;-91
2022/05/15 12:09:19;;;;;;;0.10;0.10;;;;;;;;;;4905687;29;20341;-91
2022/05/15 12:11:45;;;;;;;0.10;0.10;;;;;;;;;;4921018;29;20043;-91
2022/05/15 12:14:26;;;;;;;0.10;0.10;;;;;;;;;;4905378;29;20340;-90
2022/05/15 12:17:01;;;;;;;0.10;0.10;;;;;;;;;;4921344;29;20392;-91
2022/05/15 12:19:32;;;;;;;0.55;0.25;;;;;;;;;;4905423;29;20042;-90
2022/05/15 12:21:59;;;;;;;0.70;0.20;;;;;;;;;;4904916;29;20127;-90
2022/05/15 12:24:29;;;;;;;0.55;0.55;;;;;;;;;;4905198;29;20059;-91
2022/05/15 12:27:08;;;;;;;0.10;0.10;;;;;;;;;;4905923;29;20492;-92
2022/05/15 12:29:49;;;;;;;0.10;0.10;;;;;;;;;;4921134;29;20052;-92
2022/05/15 12:32:19;;;;;;;0.10;0.10;;;;;;;;;;4921389;29;20071;-92
2022/05/15 12:34:47;;;;;;;0.20;0.20;;;;;;;;;;4921776;29;20050;-91
2022/05/15 12:37:18;;;;;;;0.10;0.10;;;;;;;;;;4905800;29;20523;-92
2022/05/15 12:39:46;;;;;;;0.10;0.10;;;;;;;;;;4921020;29;20040;-91
2022/05/15 12:42:16;;;;;;;6.80;1.35;;;;;;;;;;4905349;29;20116;-93
2022/05/15 12:44:43;;;;;;;0.10;0.10;;;;;;;;;;4905800;29;20492;-92
2022/05/15 12:47:09;;;;;;;0.10;0.10;;;;;;;;;;4936952;29;20048;-92
2022/05/15 12:49:39;;;;;;;0.17;0.17;;;;;;;;;;4905776;29;20053;-92
2022/05/15 12:52:12;;;;;;;0.20;0.20;;;;;;;;;;4905516;29;20134;-92
2022/05/15 12:54:38;;;;;;;0.10;0.10;;;;;;;;;;4905291;29;20051;-92
2022/05/15 12:57:07;;;;;;;0.55;0.20;;;;;;;;;;4905413;29;20039;-91
2022/05/15 12:59:40;;;;;;;0.10;0.10;;;;;;;;;;4904771;29;20035;-93
2022/05/15 13:02:14;;;;;;;0.17;0.17;;;;;;;;;;4904998;29;20471;-92
2022/05/15 13:04:44;;;;;;;0.10;0.10;;;;;;;;;;4904744;29;20095;-92
2022/05/15 13:07:10;;;;;;;0.20;0.20;;;;;;;;;;4905143;29;20130;-89
2022/05/15 13:09:36;;;;;;;0.10;0.10;;;;;;;;;;4919931;29;20106;-89
2022/05/15 13:12:02;;;;;;;0.15;0.15;;;;;;;;;;4919703;29;20047;-89
2022/05/15 13:14:28;;;;;;;0.10;0.10;;;;;;;;;;4904214;29;20071;-88
2022/05/15 13:16:54;;;;;;;0.10;0.10;;;;;;;;;;4936554;29;20046;-92
2022/05/15 13:19:31;;;;;;;0.10;0.10;;;;;;;;;;4905151;29;20066;-92
2022/05/15 13:21:59;;;;;;;0.10;0.10;;;;;;;;;;4905179;29;20059;-91
2022/05/15 13:24:26;;;;;;;0.20;0.20;;;;;;;;;;4907089;29;20070;-94
2022/05/15 13:26:52;;;;;;;0.10;0.10;;;;;;;;;;4907300;29;20051;-92
2022/05/15 13:29:21;;;;;;;0.10;0.10;;;;;;;;;;4909231;29;20043;-93
2022/05/15 13:31:49;;;;;;;0.10;0.10;;;;;;;;;;4923584;28;20094;-91
2022/05/15 13:34:15;;;;;;;0.20;0.20;;;;;;;;;;4907483;29;20126;-91
2022/05/15 13:36:51;;;;;;;0.10;0.10;;;;;;;;;;4914088;29;20031;-91
2022/05/15 13:44:49;;;;;;;0.10;0.10;;;;;;;;;;4939608;29;20587;-93
2022/05/15 13:47:16;;;;;;;0.10;0.10;;;;;;;;;;4923471;29;20094;-93
2022/05/15 13:49:46;;;;;;;0.10;0.10;;;;;;;;;;4923183;29;20043;-92
2022/05/15 13:52:24;;;;;;;0.10;0.10;;;;;;;;;;4923232;29;20047;-92
2022/05/15 13:54:50;;;;;;;0.20;0.20;;;;;;;;;;4923335;29;20454;-93
2022/05/15 13:57:16;;;;;;;0.10;0.10;;;;;;;;;;4939366;29;20550;-92
2022/05/15 13:59:52;;;;;;;0.10;0.10;;;;;;;;;;4923410;29;20039;-92
2022/05/15 14:02:19;;;;;;;0.10;0.10;;;;;;;;;;4939564;29;20054;-93
2022/05/15 14:05:08;;;;;;;0.10;0.10;;;;;;;;;;4939985;29;20054;-94
2022/05/15 14:07:35;;;;;;;0.10;0.10;;;;;;;;;;4939207;29;20347;-92
2022/05/15 14:10:02;;;;;;;0.10;0.10;;;;;;;;;;4924340;29;20047;-92
2022/05/15 14:12:39;;;;;;;0.10;0.10;;;;;;;;;;4923416;29;20554;-93
2022/05/15 14:15:07;;;;;;;0.10;0.10;;;;;;;;;;4923192;29;20507;-92
2022/05/15 14:17:50;;;;;;;0.15;0.15;;;;;;;;;;4923343;29;20122;-93
2022/05/15 14:20:23;;;;;;;0.10;0.10;;;;;;;;;;4923315;29;20396;-92
2022/05/15 14:22:49;;;;;;;0.10;0.10;;;;;;;;;;4923735;29;20093;-93
2022/05/15 14:25:15;;;;;;;0.10;0.10;;;;;;;;;;4923145;29;20043;-92
2022/05/15 14:27:41;;;;;;;0.10;0.10;;;;;;;;;;4922022;29;20561;-93
2022/05/15 14:30:07;;;;;;;0.10;0.10;;;;;;;;;;4922495;29;20043;-92
2022/05/15 14:32:33;;;;;;;0.28;0.28;;;;;;;;;;4923241;29;20039;-94
2022/05/15 14:35:00;;;;;;;0.10;0.10;;;;;;;;;;4922894;29;20039;-93
2022/05/15 14:37:26;;;;;;;0.10;0.10;;;;;;;;;;4919259;29;20043;-93
2022/05/15 14:39:52;;;;;;;0.20;0.20;;;;;;;;;;4916649;29;20042;-93
2022/05/15 14:42:19;;;;;;;0.10;0.10;;;;;;;;;;4922519;29;20043;-92
2022/05/15 14:44:45;;;;;;;0.10;0.10;;;;;;;;;;4938429;29;20074;-94
2022/05/15 14:47:15;;;;;;;0.10;0.10;;;;;;;;;;4923092;29;20047;-93
2022/05/15 14:49:41;;;;;;;0.35;0.20;;;;;;;;;;4922361;29;20049;-92
2022/05/15 14:52:07;;;;;;;0.10;0.10;;;;;;;;;;4921822;28;20039;-94
2022/05/15 14:54:33;;;;;;;0.10;0.10;;;;;;;;;;4910291;29;20039;-92
2022/05/15 14:57:00;;;;;;;0.10;0.10;;;;;;;;;;4929253;29;20035;-92
2022/05/15 14:59:27;;;;;;;0.25;0.25;;;;;;;;;;4926452;29;20491;-94
2022/05/15 15:01:53;;;;;;;0.10;0.10;;;;;;;;;;4911782;29;20435;-94
2022/05/15 15:04:22;;;;;;;0.20;0.20;;;;;;;;;;4910924;29;20085;-93
2022/05/15 15:06:48;;;;;;;0.20;0.20;;;;;;;;;;4910033;29;20046;-91
2022/05/15 15:09:14;;;;;;;0.10;0.10;;;;;;;;;;4909904;29;20094;-92
2022/05/15 15:11:50;;;;;;;0.10;0.10;;;;;;;;;;4925957;29;20089;-92
2022/05/15 15:14:16;;;;;;;0.10;0.10;;;;;;;;;;4910908;29;20386;-94
2022/05/15 15:16:44;;;;;;;0.10;0.10;;;;;;;;;;4910587;29;20043;-95
2022/05/15 15:19:13;;;;;;;0.10;0.10;;;;;;;;;;4913128;29;20043;-94